createdAt,value
2019-02-28T00:00:15.739Z,59.80
2019-02-28T00:02:43.963Z,59.80
2019-02-28T00:05:12.199Z,59.40
2019-02-28T00:07:40.448Z,59.40
2019-02-28T00:10:08.739Z,59.00
2019-02-28T00:12:36.968Z,58.50
2019-02-28T00:15:07.347Z,58.80
2019-02-28T00:17:35.566Z,58.80
2019-02-28T00:20:04.967Z,59.00
2019-02-28T00:22:33.212Z,59.10
2019-02-28T00:25:04.213Z,59.20
2019-02-28T00:27:31.414Z,59.50
2019-02-28T00:29:59.661Z,59.80
2019-02-28T00:32:27.890Z,60.40
2019-02-28T00:34:56.139Z,60.70
2019-02-28T00:37:25.693Z,61.20
2019-02-28T00:39:54.001Z,61.40
2019-02-28T00:42:22.234Z,61.90
2019-02-28T00:44:50.467Z,62.30
2019-02-28T00:47:18.711Z,62.50
2019-02-28T00:49:46.976Z,62.70
2019-02-28T00:52:15.221Z,63.50
2019-02-28T00:54:44.507Z,63.20
2019-02-28T00:57:12.879Z,62.80
2019-02-28T00:59:41.092Z,62.60
2019-02-28T01:02:09.336Z,62.20
2019-02-28T01:04:37.551Z,62.10
2019-02-28T01:07:05.785Z,62.00
2019-02-28T01:09:34.035Z,62.90
2019-02-28T01:12:02.263Z,62.10
2019-02-28T01:14:32.377Z,62.30
2019-02-28T01:17:00.470Z,62.40
2019-02-28T01:19:28.719Z,62.30
2019-02-28T01:21:56.948Z,62.60
2019-02-28T01:24:25.189Z,62.60
2019-02-28T01:26:53.426Z,62.30
2019-02-28T01:29:21.694Z,62.30
2019-02-28T01:31:49.922Z,61.80
2019-02-28T01:34:18.178Z,62.00
2019-02-28T01:36:48.800Z,62.10
2019-02-28T01:39:16.372Z,62.30
2019-02-28T01:41:45.288Z,62.40
2019-02-28T01:44:14.117Z,62.40
2019-02-28T01:46:42.352Z,62.60
2019-02-28T01:49:10.595Z,62.90
2019-02-28T01:51:38.846Z,63.00
2019-02-28T01:54:07.082Z,63.10
2019-02-28T01:56:36.949Z,64.40
2019-02-28T01:59:05.281Z,63.80
2019-02-28T02:01:33.525Z,64.40
2019-02-28T02:04:01.749Z,64.90
2019-02-28T02:06:30.017Z,65.10
2019-02-28T02:08:58.238Z,65.30
2019-02-28T04:12:45.642Z,70.20
2019-02-28T04:15:21.215Z,70.00
2019-02-28T04:17:49.473Z,70.20
2019-02-28T04:20:17.787Z,70.20
2019-02-28T04:22:46.089Z,71.30
2019-02-28T04:25:14.350Z,70.50
2019-02-28T04:27:42.561Z,70.50
2019-02-28T04:30:16.751Z,70.70
2019-02-28T04:32:44.987Z,70.90
2019-02-28T04:35:13.240Z,71.00
2019-02-28T04:37:46.566Z,70.80
2019-02-28T04:40:14.403Z,70.80
2019-02-28T04:42:42.636Z,70.80
2019-02-28T04:45:12.490Z,70.80
2019-02-28T04:47:41.634Z,70.80
2019-02-28T04:50:11.594Z,70.90
2019-02-28T04:52:39.836Z,71.00
2019-02-28T04:55:08.812Z,71.00
2019-02-28T04:57:37.041Z,71.20
2019-02-28T05:00:11.436Z,71.30
2019-02-28T05:02:39.678Z,71.10
2019-02-28T05:05:11.924Z,71.30
2019-02-28T05:07:37.880Z,71.50
2019-02-28T05:10:07.964Z,71.20
2019-02-28T05:12:39.499Z,71.10
2019-02-28T05:15:07.785Z,70.90
2019-02-28T05:17:36.056Z,72.00
2019-02-28T05:20:07.338Z,71.00
2019-02-28T05:22:36.103Z,71.60
2019-02-28T05:25:04.882Z,72.50
2019-02-28T05:27:35.442Z,72.30
2019-02-28T05:30:03.141Z,72.30
2019-02-28T05:32:32.114Z,71.60
2019-02-28T05:35:01.351Z,71.50
2019-02-28T05:37:29.593Z,71.50
2019-02-28T05:39:57.832Z,72.00
2019-02-28T05:42:26.064Z,72.20
2019-02-28T05:44:54.290Z,72.40
2019-02-28T05:47:22.550Z,72.60
2019-02-28T05:49:50.807Z,72.60
2019-02-28T05:52:19.032Z,72.70
2019-02-28T05:54:50.300Z,72.80
2019-02-28T05:57:17.248Z,73.20
2019-02-28T05:59:45.479Z,73.00
2019-02-28T06:02:13.716Z,72.90
2019-02-28T06:04:41.959Z,72.90
2019-02-28T06:07:10.193Z,73.00
2019-02-28T06:09:38.414Z,73.20
2019-02-28T06:12:09.554Z,73.00
2019-02-28T06:14:36.635Z,73.20
2019-02-28T06:17:04.866Z,72.90
2019-02-28T06:19:33.083Z,72.90
2019-02-28T06:22:01.326Z,73.00
2019-02-28T06:24:29.563Z,73.10
2019-02-28T06:26:57.826Z,73.20
2019-02-28T06:29:26.058Z,73.20
2019-02-28T06:31:54.334Z,73.60
2019-02-28T06:34:22.579Z,74.10
2019-02-28T06:36:50.788Z,73.70
2019-02-28T06:39:19.031Z,73.70
2019-02-28T06:41:47.246Z,73.90
2019-02-28T06:44:15.500Z,73.80
2019-02-28T06:46:43.740Z,73.90
2019-02-28T06:49:11.976Z,74.10
2019-02-28T06:51:40.230Z,73.90
2019-02-28T06:54:08.775Z,74.00
2019-02-28T06:56:37.192Z,74.10
2019-02-28T06:59:05.623Z,74.20
2019-02-28T07:01:33.928Z,74.10
2019-02-28T07:04:02.191Z,74.10
2019-02-28T07:06:35.582Z,74.00
2019-02-28T07:09:02.377Z,74.20
2019-02-28T07:11:30.356Z,74.00
2019-02-28T07:13:58.574Z,74.00
2019-02-28T07:16:26.821Z,74.00
2019-02-28T07:18:55.073Z,73.90
2019-02-28T07:21:23.322Z,73.50
2019-02-28T07:23:53.287Z,73.60
2019-02-28T07:26:21.568Z,73.40
2019-02-28T07:28:49.808Z,73.30
2019-02-28T07:31:18.056Z,73.20
2019-02-28T07:33:46.321Z,72.50
2019-02-28T07:36:14.553Z,72.20
2019-02-28T07:38:42.802Z,72.10
2019-02-28T07:41:11.045Z,72.10
2019-02-28T07:43:39.286Z,72.10
2019-02-28T07:46:08.738Z,71.10
2019-02-28T07:48:37.178Z,71.10
2019-02-28T07:51:05.484Z,70.40
2019-02-28T07:53:33.703Z,70.10
2019-02-28T07:56:03.739Z,69.50
2019-02-28T07:58:33.420Z,69.10
2019-02-28T08:01:01.928Z,68.90
2019-02-28T08:03:30.167Z,68.10
2019-02-28T08:06:04.339Z,67.70
2019-02-28T08:08:28.395Z,67.00
2019-02-28T08:10:57.023Z,65.40
2019-02-28T08:13:25.258Z,65.20
2019-02-28T08:15:56.818Z,64.30
2019-02-28T08:18:23.478Z,64.30
2019-02-28T08:20:51.721Z,61.70
2019-02-28T08:23:20.018Z,60.30
2019-02-28T08:25:48.237Z,59.90
2019-02-28T08:28:16.497Z,59.90
2019-02-28T08:30:44.789Z,58.80
2019-02-28T08:33:16.270Z,57.70
2019-02-28T08:35:43.012Z,57.80
2019-02-28T08:38:11.251Z,57.40
2019-02-28T08:40:58.919Z,55.20
2019-02-28T08:43:27.530Z,54.10
2019-02-28T08:45:55.913Z,52.80
2019-02-28T08:48:24.222Z,52.40
2019-02-28T08:50:52.717Z,52.00
2019-02-28T08:53:22.439Z,51.70
2019-02-28T08:55:50.676Z,52.70
2019-02-28T08:58:18.986Z,52.40
2019-02-28T09:00:47.367Z,51.30
2019-02-28T09:03:15.607Z,50.90
2019-02-28T09:05:43.840Z,49.90
2019-02-28T09:08:12.104Z,49.30
2019-02-28T09:10:40.372Z,48.70
2019-02-28T09:13:08.960Z,49.10
2019-02-28T09:15:37.171Z,49.00
2019-02-28T09:18:07.227Z,48.10
2019-02-28T09:20:35.402Z,47.00
2019-02-28T09:23:03.634Z,47.90
2019-02-28T09:25:31.871Z,47.30
2019-02-28T09:28:00.106Z,46.00
2019-02-28T09:30:34.189Z,46.00
2019-02-28T09:33:02.417Z,45.50
2019-02-28T09:35:30.665Z,45.20
2019-02-28T09:38:00.288Z,44.80
2019-02-28T09:40:29.419Z,43.80
2019-02-28T09:42:58.717Z,44.40
2019-02-28T09:45:33.990Z,42.80
2019-02-28T09:48:03.009Z,43.00
2019-02-28T09:50:33.076Z,42.30
2019-02-28T09:53:01.294Z,42.10
2019-02-28T09:55:34.089Z,42.30
2019-02-28T09:57:59.483Z,42.30
2019-02-28T10:00:28.171Z,41.40
2019-02-28T10:02:56.447Z,41.80
2019-02-28T10:05:24.753Z,41.20
2019-02-28T10:07:52.986Z,40.30
2019-02-28T10:10:23.228Z,40.60
2019-02-28T10:12:51.469Z,41.70
2019-02-28T10:15:21.279Z,40.60
2019-02-28T10:17:49.542Z,39.80
2019-02-28T10:20:28.549Z,40.60
2019-02-28T10:22:57.227Z,40.40
2019-02-28T10:25:25.557Z,40.10
2019-02-28T10:27:54.690Z,41.20
2019-02-28T10:30:31.563Z,41.10
2019-02-28T10:32:56.927Z,41.20
2019-02-28T10:35:25.200Z,40.20
2019-02-28T10:37:57.338Z,40.90
2019-02-28T10:40:27.080Z,41.10
2019-02-28T10:42:55.335Z,41.30
2019-02-28T10:45:24.218Z,41.00
2019-02-28T10:47:52.485Z,40.80
2019-02-28T10:50:26.003Z,40.70
2019-02-28T10:52:54.373Z,41.10
2019-02-28T10:55:23.373Z,41.10
2019-02-28T10:57:51.648Z,41.30
2019-02-28T11:00:29.495Z,40.70
2019-02-28T11:02:57.858Z,40.50
2019-02-28T11:05:30.821Z,40.20
2019-02-28T11:07:59.124Z,39.70
2019-02-28T11:10:35.374Z,38.40
2019-02-28T11:13:02.102Z,38.70
2019-02-28T11:15:30.343Z,37.70
2019-02-28T11:17:58.585Z,36.60
2019-02-28T11:20:27.120Z,35.20
2019-02-28T11:22:55.460Z,35.20
2019-02-28T11:25:25.068Z,34.80
2019-02-28T11:27:54.573Z,34.00
2019-02-28T11:30:30.684Z,34.50
2019-02-28T11:33:03.091Z,34.80
2019-02-28T11:35:29.544Z,33.50
2019-02-28T11:37:57.795Z,33.20
2019-02-28T11:40:29.171Z,33.30
2019-02-28T11:42:59.413Z,32.60
2019-02-28T11:45:31.430Z,31.90
2019-02-28T11:48:01.824Z,30.80
2019-02-28T11:50:30.071Z,31.40
2019-02-28T11:53:03.271Z,31.70
2019-02-28T11:55:47.734Z,32.00
2019-02-28T11:58:17.616Z,32.00
2019-02-28T12:00:46.017Z,31.80
2019-02-28T12:03:14.298Z,31.80
2019-02-28T12:05:42.525Z,32.30
2019-02-28T12:08:10.796Z,32.80
2019-02-28T12:10:39.099Z,33.00
2019-02-28T12:13:08.100Z,33.00
2019-02-28T12:15:39.162Z,31.10
2019-02-28T12:18:07.592Z,30.10
2019-02-28T12:20:35.832Z,29.50
2019-02-28T12:23:04.075Z,30.20
2019-02-28T12:25:32.358Z,31.10
2019-02-28T12:28:02.940Z,30.90
2019-02-28T12:30:32.210Z,30.00
2019-02-28T12:33:00.438Z,29.20
2019-02-28T12:35:28.670Z,28.90
2019-02-28T12:37:56.941Z,29.00
2019-02-28T12:40:30.419Z,29.50
2019-02-28T12:42:58.679Z,28.80
2019-02-28T12:45:38.608Z,28.50
2019-02-28T12:48:06.832Z,27.60
2019-02-28T12:50:35.107Z,26.10
2019-02-28T12:53:03.410Z,25.90
2019-02-28T12:55:31.671Z,25.20
2019-02-28T12:58:00.197Z,23.50
2019-02-28T13:00:31.462Z,23.10
2019-02-28T13:02:59.770Z,23.00
2019-02-28T13:05:28.069Z,22.60
2019-02-28T13:07:56.314Z,23.00
2019-02-28T13:10:28.022Z,23.20
2019-02-28T13:13:05.307Z,22.90
2019-02-28T13:15:24.579Z,23.20
2019-02-28T13:17:52.818Z,23.60
2019-02-28T13:20:23.775Z,23.90
2019-02-28T13:22:52.079Z,24.00
2019-02-28T13:25:23.504Z,24.40
2019-02-28T13:27:50.386Z,24.90
2019-02-28T13:30:24.147Z,25.30
2019-02-28T13:32:52.434Z,25.40
2019-02-28T13:35:31.649Z,25.00
2019-02-28T13:37:59.892Z,25.10
2019-02-28T13:40:28.120Z,25.30
2019-02-28T13:42:56.388Z,25.20
2019-02-28T13:45:25.409Z,25.20
2019-02-28T13:47:53.630Z,24.80
2019-02-28T13:50:32.372Z,24.00
2019-02-28T13:53:02.511Z,24.80
2019-02-28T13:55:30.127Z,25.90
2019-02-28T13:57:58.459Z,25.80
2019-02-28T14:00:29.293Z,26.20
2019-02-28T14:03:00.152Z,27.30
2019-02-28T14:05:28.457Z,27.40
2019-02-28T14:07:56.708Z,27.70
2019-02-28T14:10:24.961Z,27.60
2019-02-28T14:12:57.097Z,28.10
2019-02-28T14:15:41.355Z,27.50
2019-02-28T14:18:10.799Z,27.20
2019-02-28T14:20:39.547Z,26.80
2019-02-28T14:23:07.797Z,25.70
2019-02-28T14:25:36.299Z,25.50
2019-02-28T14:28:06.015Z,25.30
2019-02-28T14:30:34.277Z,25.50
2019-02-28T14:33:02.498Z,25.40
2019-02-28T14:35:33.925Z,25.10
2019-02-28T14:38:00.794Z,25.40
2019-02-28T14:40:29.079Z,25.90
2019-02-28T14:42:57.384Z,25.50
2019-02-28T14:45:34.369Z,25.90
2019-02-28T14:48:04.365Z,25.80
2019-02-28T14:50:32.567Z,26.30
2019-02-28T14:53:00.858Z,26.80
2019-02-28T14:55:29.423Z,27.30
2019-02-28T14:57:59.061Z,27.60
2019-02-28T15:00:32.649Z,27.50
2019-02-28T15:03:03.034Z,27.80
2019-02-28T15:05:39.462Z,28.00
2019-02-28T15:08:07.715Z,28.10
2019-02-28T15:10:36.025Z,28.60
2019-02-28T15:13:05.051Z,28.90
2019-02-28T15:15:35.880Z,29.10
2019-02-28T15:18:03.603Z,29.60
2019-02-28T15:20:32.991Z,29.90
2019-02-28T15:23:01.485Z,30.00
2019-02-28T15:25:30.571Z,30.30
2019-02-28T15:27:58.838Z,30.30
2019-02-28T15:30:40.836Z,30.60
2019-02-28T15:33:09.076Z,31.20
2019-02-28T15:35:37.322Z,31.50
2019-02-28T15:38:08.751Z,31.60
2019-02-28T15:40:44.149Z,31.80
2019-02-28T15:43:17.190Z,31.80
2019-02-28T15:45:42.437Z,32.00
2019-02-28T15:48:10.659Z,33.30
2019-02-28T15:50:38.914Z,34.50
2019-02-28T15:53:07.851Z,35.60
2019-02-28T15:55:36.589Z,37.10
2019-02-28T15:58:05.800Z,38.00
2019-02-28T16:00:36.196Z,39.10
2019-02-28T16:03:04.547Z,39.90
2019-02-28T16:05:32.775Z,40.20
2019-02-28T16:08:01.032Z,40.50
2019-02-28T16:10:31.926Z,40.80
2019-02-28T16:13:22.653Z,41.10
2019-02-28T16:15:50.453Z,41.10
2019-02-28T16:18:18.673Z,41.50
2019-02-28T16:20:46.936Z,41.90
2019-02-28T16:23:15.304Z,42.80
2019-02-28T16:25:46.917Z,43.40
2019-02-28T16:28:13.536Z,43.60
2019-02-28T16:30:41.835Z,44.40
2019-02-28T16:33:10.094Z,45.00
2019-02-28T16:35:38.333Z,45.10
2019-02-28T16:38:09.888Z,45.30
2019-02-28T16:40:36.567Z,46.10
2019-02-28T16:43:04.784Z,45.70
2019-02-28T16:45:40.749Z,46.10
2019-02-28T16:48:08.082Z,46.10
2019-02-28T16:50:36.459Z,46.10
2019-02-28T16:53:04.783Z,46.10
2019-02-28T16:55:33.241Z,46.30
2019-02-28T16:58:01.501Z,46.70
2019-02-28T17:00:29.736Z,46.90
2019-02-28T17:02:57.968Z,47.00
2019-02-28T17:05:28.126Z,47.20
2019-02-28T17:07:56.251Z,47.30
2019-02-28T17:10:32.060Z,47.60
2019-02-28T17:13:18.582Z,47.90
2019-02-28T17:15:48.465Z,48.40
2019-02-28T17:18:21.088Z,48.20
2019-02-28T17:20:48.339Z,48.00
2019-02-28T17:23:18.515Z,48.20
2019-02-28T17:25:46.563Z,47.70
2019-02-28T17:28:16.429Z,47.80
2019-02-28T17:30:46.342Z,47.50
2019-02-28T17:33:14.591Z,47.70
2019-02-28T17:35:42.825Z,47.50
2019-02-28T17:38:11.089Z,47.70
2019-02-28T17:40:39.315Z,48.00
2019-02-28T17:43:07.584Z,48.20
2019-02-28T17:45:35.835Z,48.40
2019-02-28T17:48:26.948Z,48.80
2019-02-28T17:51:01.033Z,49.10
2019-02-28T17:53:45.706Z,49.50
2019-02-28T17:56:37.539Z,49.90
2019-02-28T17:59:30.010Z,50.30
2019-02-28T18:02:38.121Z,50.50
2019-02-28T18:05:30.087Z,51.00
2019-02-28T18:08:04.316Z,52.00
2019-02-28T18:10:50.905Z,53.00
2019-02-28T18:13:34.263Z,54.30
2019-02-28T18:16:23.907Z,55.00
2019-02-28T18:19:33.431Z,55.50
2019-02-28T18:22:05.054Z,56.40
2019-02-28T18:24:54.543Z,57.10
2019-02-28T18:27:31.550Z,57.60
2019-02-28T18:30:27.572Z,58.20
2019-02-28T18:32:55.930Z,58.60
2019-02-28T18:35:24.177Z,59.00
2019-02-28T18:37:52.450Z,59.40
2019-02-28T18:40:22.750Z,59.70
2019-02-28T18:42:51.478Z,59.80
2019-02-28T18:45:22.478Z,59.70
2019-02-28T18:47:50.546Z,59.70
2019-02-28T18:50:18.842Z,59.40
2019-02-28T18:52:47.080Z,60.30
2019-02-28T18:55:15.337Z,59.70
2019-02-28T18:57:43.558Z,59.70
2019-02-28T19:00:15.591Z,59.80
2019-02-28T19:02:43.819Z,59.80
2019-02-28T19:05:12.066Z,59.80
2019-02-28T19:07:40.323Z,59.50
2019-02-28T19:10:09.927Z,59.50
2019-02-28T19:12:38.205Z,59.70
2019-02-28T19:15:12.656Z,59.70
2019-02-28T19:17:40.888Z,59.60
2019-02-28T19:20:10.780Z,59.60
2019-02-28T19:22:39.033Z,59.70
2019-02-28T19:25:11.739Z,59.20
2019-02-28T19:27:39.971Z,59.80
2019-02-28T19:30:15.820Z,60.00
2019-02-28T19:32:44.116Z,60.00
2019-02-28T19:35:12.492Z,60.40
2019-02-28T19:37:40.748Z,60.30
2019-02-28T19:40:11.779Z,60.60
2019-02-28T19:42:40.025Z,60.60
2019-02-28T19:45:11.926Z,60.60
2019-02-28T19:47:40.244Z,60.40
2019-02-28T19:50:10.240Z,60.20
2019-02-28T19:52:38.471Z,60.20
2019-02-28T19:55:10.054Z,60.40
2019-02-28T19:57:38.280Z,60.60
2019-02-28T20:00:18.201Z,60.90
2019-02-28T20:02:46.466Z,60.90
2019-02-28T20:05:14.701Z,61.00
2019-02-28T20:07:42.936Z,60.80
2019-02-28T20:10:14.377Z,61.00
2019-02-28T20:12:42.652Z,61.00
2019-02-28T20:15:13.622Z,60.80
2019-02-28T20:17:41.866Z,60.70
2019-02-28T20:20:13.377Z,60.70
2019-02-28T20:22:41.611Z,60.70
2019-02-28T20:25:11.509Z,60.80
2019-02-28T20:27:39.762Z,60.60
2019-02-28T20:30:16.666Z,60.40
2019-02-28T20:32:44.935Z,60.30
2019-02-28T20:35:13.221Z,60.60
2019-02-28T20:37:41.478Z,60.60
2019-02-28T20:40:15.383Z,60.60
2019-02-28T20:42:43.650Z,60.40
2019-02-28T20:45:12.544Z,60.20
2019-02-28T20:47:40.772Z,59.90
2019-02-28T20:50:20.688Z,59.40
2019-02-28T20:52:48.913Z,59.60
2019-02-28T20:55:17.155Z,59.20
2019-02-28T20:57:45.428Z,59.00
2019-02-28T21:00:17.194Z,58.90
2019-02-28T21:02:45.416Z,58.60
2019-02-28T21:05:13.662Z,58.40
2019-02-28T21:07:41.914Z,58.50
2019-02-28T21:10:10.981Z,58.50
2019-02-28T21:12:39.283Z,58.10
2019-02-28T21:15:10.550Z,58.20
2019-02-28T21:17:38.793Z,57.70
2019-02-28T21:20:12.333Z,57.70
2019-02-28T21:22:40.607Z,57.50
2019-02-28T21:25:14.170Z,57.50
2019-02-28T21:27:42.463Z,57.60
2019-02-28T21:30:16.009Z,57.50
2019-02-28T21:32:44.268Z,57.60
2019-02-28T21:35:12.492Z,57.70
2019-02-28T21:37:40.741Z,57.70
2019-02-28T21:40:11.418Z,57.70
2019-02-28T21:42:39.676Z,58.00
2019-02-28T21:45:17.249Z,58.00
2019-02-28T21:47:45.469Z,58.00
2019-02-28T21:50:15.564Z,58.00
2019-02-28T21:52:43.846Z,58.10
2019-02-28T21:55:15.835Z,58.00
2019-02-28T21:57:44.140Z,58.00
2019-02-28T22:00:20.360Z,58.10
2019-02-28T22:02:48.581Z,58.10
2019-02-28T22:05:16.818Z,58.00
2019-02-28T22:07:45.064Z,57.90
2019-02-28T22:10:14.730Z,57.90
2019-02-28T22:12:42.975Z,58.30
2019-02-28T22:15:16.600Z,58.80
2019-02-28T22:17:44.834Z,59.00
2019-02-28T22:20:14.217Z,59.20
2019-02-28T22:22:42.445Z,59.40
2019-02-28T22:25:12.532Z,59.40
2019-02-28T22:27:40.762Z,59.60
2019-02-28T22:30:34.411Z,59.90
2019-02-28T22:33:16.520Z,60.20
2019-02-28T22:35:46.411Z,60.80
2019-02-28T22:38:14.632Z,61.00
2019-02-28T22:40:42.872Z,61.30
2019-02-28T22:43:11.095Z,61.60
2019-02-28T22:45:39.345Z,62.20
2019-02-28T22:48:07.570Z,62.60
2019-02-28T22:50:35.804Z,63.00
2019-02-28T22:53:04.045Z,63.00
2019-02-28T22:55:32.280Z,63.20
2019-02-28T22:58:03.788Z,63.40
2019-02-28T23:01:00.214Z,63.60
2019-02-28T23:03:30.118Z,63.80
2019-02-28T23:05:58.372Z,64.20
2019-02-28T23:08:26.608Z,64.40
2019-02-28T23:10:54.826Z,64.60
2019-02-28T23:13:23.091Z,64.70
2019-02-28T23:15:51.310Z,65.00
2019-02-28T23:18:19.526Z,65.30
2019-02-28T23:20:47.782Z,65.50
2019-02-28T23:23:16.013Z,65.80
2019-02-28T23:25:44.265Z,65.90
2019-02-28T23:28:24.671Z,66.30
2019-02-28T23:31:29.868Z,67.50
2019-02-28T23:34:01.751Z,68.50
2019-02-28T23:36:30.087Z,69.10
2019-02-28T23:38:58.337Z,70.20
2019-02-28T23:41:26.560Z,70.00
2019-02-28T23:43:54.796Z,70.00
2019-02-28T23:46:23.040Z,69.80
2019-02-28T23:48:52.380Z,70.00
2019-02-28T23:51:20.637Z,70.20
2019-02-28T23:53:48.874Z,70.20
2019-02-28T23:56:17.121Z,70.40
2019-02-28T23:58:45.352Z,70.60
